Terminal Aerodrome Forecast
Issued by NWS

Current Version | Previous Version | Graphics & Text | Print | Product List | Glossary On
Versions: 1 2 3 4 5 6 7 8 9 10 11 12 13 14 15 16
488
FTUS41 KPBZ 040748 AAA
TAFMGW
TAF AMD
KMGW 040748Z 0408/0506 29008KT P6SM OVC040
     FM041100 28008KT P6SM OVC025
     FM041700 28007KT P6SM BKN035=

USA.gov is the U.S. government's official web portal to all federal, state and local government web resources and services.